createdAt,value
2022-07-30T00:01:21.270Z,86.43
2022-07-30T00:03:48.190Z,86.92
2022-07-30T00:06:14.987Z,87.20
2022-07-30T00:08:41.727Z,88.65
2022-07-30T00:11:09.449Z,89.16
2022-07-30T00:13:36.225Z,89.20
2022-07-30T00:16:03.310Z,89.84
2022-07-30T00:18:30.066Z,90.70
2022-07-30T00:20:57.235Z,90.77
2022-07-30T00:23:24.129Z,90.76
2022-07-30T00:25:50.887Z,90.70
2022-07-30T00:28:17.647Z,92.03
2022-07-30T00:30:44.459Z,91.25
2022-07-30T00:33:11.319Z,91.69
2022-07-30T00:35:39.720Z,92.88
2022-07-30T00:38:06.585Z,93.89
2022-07-30T00:40:33.405Z,94.94
2022-07-30T00:43:00.260Z,94.89
2022-07-30T00:45:27.762Z,94.72
2022-07-30T00:47:54.657Z,94.64
2022-07-30T00:50:21.876Z,94.16
2022-07-30T00:52:49.157Z,93.84
2022-07-30T00:55:16.250Z,94.27
2022-07-30T00:57:44.441Z,94.86
2022-07-30T01:00:16.227Z,95.00
2022-07-30T01:02:53.571Z,94.20
2022-07-30T01:05:20.588Z,95.05
2022-07-30T01:07:47.602Z,96.02
2022-07-30T01:10:16.321Z,97.49
2022-07-30T01:12:45.621Z,97.82
2022-07-30T01:15:12.852Z,98.87
2022-07-30T01:17:40.669Z,97.84
2022-07-30T01:20:16.170Z,98.79
2022-07-30T01:22:59.804Z,100.00
2022-07-30T01:25:51.434Z,99.97
2022-07-30T01:28:25.936Z,100.00
2022-07-30T01:30:54.570Z,100.00
2022-07-30T01:33:24.090Z,100.00
2022-07-30T01:35:53.494Z,100.00
2022-07-30T01:38:23.678Z,100.00
2022-07-30T01:40:55.959Z,100.00
2022-07-30T01:43:25.849Z,100.00
2022-07-30T01:45:55.320Z,100.00
2022-07-30T01:48:25.423Z,100.00
2022-07-30T01:50:58.274Z,100.00
2022-07-30T01:53:29.912Z,100.00
2022-07-30T01:56:00.231Z,100.00
2022-07-30T01:58:31.719Z,100.00
2022-07-30T02:01:07.306Z,100.00
2022-07-30T02:03:35.599Z,100.00
2022-07-30T02:06:13.500Z,100.00
2022-07-30T02:08:52.447Z,100.00
2022-07-30T02:11:38.998Z,100.00
2022-07-30T02:14:21.842Z,100.00
2022-07-30T02:16:59.178Z,100.00
2022-07-30T02:19:41.614Z,100.00
2022-07-30T02:22:15.926Z,100.00
2022-07-30T02:24:44.396Z,100.00
2022-07-30T02:27:26.520Z,100.00
2022-07-30T02:29:57.803Z,100.00
2022-07-30T02:32:30.625Z,100.00
2022-07-30T02:35:05.273Z,100.00
2022-07-30T02:37:42.961Z,100.00
2022-07-30T02:40:19.467Z,100.00
2022-07-30T02:42:51.422Z,100.00
2022-07-30T02:45:24.695Z,100.00
2022-07-30T02:47:57.605Z,100.00
2022-07-30T02:50:26.231Z,100.00
2022-07-30T02:52:56.492Z,100.00
2022-07-30T02:55:27.014Z,100.00
2022-07-30T02:57:56.448Z,100.00
2022-07-30T03:00:25.817Z,100.00
2022-07-30T03:02:56.975Z,100.00
2022-07-30T03:05:25.794Z,100.00
2022-07-30T03:07:57.996Z,100.00
2022-07-30T03:10:27.701Z,100.00
2022-07-30T03:12:56.969Z,100.00
2022-07-30T03:15:24.413Z,100.00
2022-07-30T03:17:55.572Z,100.00
2022-07-30T03:20:29.592Z,100.00
2022-07-30T03:22:59.948Z,100.00
2022-07-30T03:25:31.960Z,100.00
2022-07-30T03:28:04.032Z,100.00
2022-07-30T03:30:34.525Z,100.00
2022-07-30T03:33:02.534Z,100.00
2022-07-30T03:35:31.516Z,100.00
2022-07-30T03:38:01.787Z,100.00
2022-07-30T03:40:30.275Z,100.00
2022-07-30T03:42:57.869Z,100.00
2022-07-30T03:45:26.469Z,100.00
2022-07-30T03:47:59.290Z,100.00
2022-07-30T03:50:27.915Z,100.00
2022-07-30T03:52:55.599Z,100.00
2022-07-30T03:55:23.355Z,100.00
2022-07-30T03:57:51.122Z,100.00
2022-07-30T04:00:22.637Z,100.00
2022-07-30T04:02:53.336Z,100.00
2022-07-30T04:05:41.234Z,100.00
2022-07-30T04:08:09.543Z,100.00
2022-07-30T04:10:38.126Z,100.00
2022-07-30T04:13:09.155Z,100.00
2022-07-30T04:16:35.031Z,100.00
2022-07-30T04:18:47.588Z,100.00
2022-07-30T04:21:18.038Z,100.00
2022-07-30T04:24:02.315Z,100.00
2022-07-30T04:26:35.630Z,100.00
2022-07-30T04:29:07.547Z,100.00
2022-07-30T04:31:40.046Z,100.00
2022-07-30T04:34:34.711Z,100.00
2022-07-30T04:37:04.425Z,100.00
2022-07-30T04:39:31.579Z,100.00
2022-07-30T04:41:58.417Z,100.00
2022-07-30T04:44:34.402Z,100.00
2022-07-30T04:47:27.237Z,100.00
2022-07-30T04:50:14.168Z,100.00
2022-07-30T04:52:44.209Z,100.00
2022-07-30T04:55:15.105Z,100.00
2022-07-30T04:57:47.156Z,100.00
2022-07-30T05:00:16.545Z,100.00
2022-07-30T05:02:46.447Z,100.00
2022-07-30T05:05:16.369Z,100.00
2022-07-30T05:07:46.541Z,100.00
2022-07-30T05:10:14.379Z,100.00
2022-07-30T05:12:42.287Z,100.00
2022-07-30T05:15:11.204Z,100.00
2022-07-30T05:17:39.185Z,100.00
2022-07-30T05:20:09.712Z,100.00
2022-07-30T05:23:09.434Z,100.00
2022-07-30T05:25:40.609Z,100.00
2022-07-30T05:28:27.379Z,100.00
2022-07-30T05:30:56.416Z,100.00
2022-07-30T05:33:41.368Z,100.00
2022-07-30T05:36:14.196Z,100.00
2022-07-30T05:38:43.868Z,100.00
2022-07-30T05:41:31.848Z,100.00
2022-07-30T05:44:23.881Z,100.00
2022-07-30T05:46:52.113Z,100.00
2022-07-30T05:49:19.956Z,100.00
2022-07-30T05:51:47.004Z,100.00
2022-07-30T05:54:13.943Z,100.00
2022-07-30T05:57:06.922Z,100.00
2022-07-30T05:59:38.772Z,100.00
2022-07-30T06:02:08.495Z,100.00
2022-07-30T06:04:50.129Z,100.00
2022-07-30T06:07:17.739Z,100.00
2022-07-30T06:09:44.683Z,100.00
2022-07-30T06:12:11.773Z,100.00
2022-07-30T06:14:40.556Z,100.00
2022-07-30T06:17:10.311Z,100.00
2022-07-30T06:19:55.620Z,100.00
2022-07-30T06:22:26.250Z,100.00
2022-07-30T06:24:54.734Z,100.00
2022-07-30T06:27:30.923Z,100.00
2022-07-30T06:29:58.456Z,100.00
2022-07-30T06:32:26.394Z,100.00
2022-07-30T06:35:02.454Z,100.00
2022-07-30T06:38:01.786Z,100.00
2022-07-30T06:40:18.895Z,100.00
2022-07-30T06:43:04.233Z,100.00
2022-07-30T06:45:50.128Z,100.00
2022-07-30T06:48:23.545Z,100.00
2022-07-30T06:50:51.790Z,100.00
2022-07-30T06:53:19.505Z,100.00
2022-07-30T06:56:21.444Z,98.88
2022-07-30T06:58:55.613Z,99.25
2022-07-30T07:01:49.484Z,98.33
2022-07-30T07:04:16.276Z,97.76
2022-07-30T07:06:43.178Z,96.34
2022-07-30T07:09:13.294Z,93.81
2022-07-30T07:11:50.105Z,94.01
2022-07-30T07:14:18.857Z,90.54
2022-07-30T07:16:48.869Z,89.30
2022-07-30T07:19:59.782Z,87.66
2022-07-30T07:22:30.833Z,78.39
2022-07-30T07:24:57.655Z,74.37
2022-07-30T07:27:28.301Z,70.61
2022-07-30T07:30:01.294Z,70.97
2022-07-30T07:32:34.277Z,71.39
2022-07-30T07:35:02.604Z,70.95
2022-07-30T07:37:30.358Z,71.77
2022-07-30T07:39:57.490Z,70.36
2022-07-30T07:42:24.453Z,68.84
2022-07-30T07:44:52.884Z,68.46
2022-07-30T07:47:19.858Z,64.41
2022-07-30T07:50:02.718Z,59.29
2022-07-30T07:52:30.255Z,59.00
2022-07-30T07:54:56.984Z,59.81
2022-07-30T07:57:24.510Z,58.35
2022-07-30T07:59:54.330Z,57.57
2022-07-30T08:02:26.690Z,56.96
2022-07-30T08:05:06.045Z,54.71
2022-07-30T08:07:43.692Z,51.34
2022-07-30T08:10:29.081Z,52.73
2022-07-30T08:13:48.987Z,48.48
2022-07-30T08:16:37.865Z,45.85
2022-07-30T08:19:20.757Z,46.78
2022-07-30T08:21:59.696Z,44.96
2022-07-30T08:24:30.355Z,45.90
2022-07-30T08:26:57.397Z,45.53
2022-07-30T08:29:24.368Z,44.98
2022-07-30T08:31:51.331Z,44.99
2022-07-30T08:34:25.652Z,43.89
2022-07-30T08:36:54.295Z,44.13
2022-07-30T08:39:21.417Z,45.81
2022-07-30T08:41:49.081Z,46.29
2022-07-30T08:44:19.381Z,47.82
2022-07-30T08:46:56.145Z,48.96
2022-07-30T08:49:34.600Z,48.64
2022-07-30T08:52:02.917Z,47.05
2022-07-30T08:54:43.458Z,48.00
2022-07-30T08:57:12.923Z,48.96
2022-07-30T08:59:59.486Z,49.17
2022-07-30T09:02:32.138Z,49.86
2022-07-30T09:05:06.361Z,50.87
2022-07-30T09:07:34.782Z,52.23
2022-07-30T09:10:08.307Z,52.81
2022-07-30T09:12:42.640Z,53.19
2022-07-30T09:15:15.381Z,52.52
2022-07-30T09:17:51.396Z,50.84
2022-07-30T09:20:26.249Z,51.88
2022-07-30T09:23:00.570Z,51.57
2022-07-30T09:25:49.341Z,52.90
2022-07-30T09:28:35.010Z,52.38
2022-07-30T09:31:14.330Z,50.97
2022-07-30T09:33:59.634Z,49.81
2022-07-30T09:36:44.831Z,50.48
2022-07-30T09:39:58.891Z,52.08
2022-07-30T09:42:45.297Z,52.55
2022-07-30T09:45:15.672Z,52.49
2022-07-30T09:47:48.451Z,52.20
2022-07-30T09:53:09.866Z,50.50
2022-07-30T09:55:42.826Z,50.64
2022-07-30T09:58:12.909Z,52.14
2022-07-30T10:00:47.027Z,52.22
2022-07-30T10:03:43.138Z,50.97
2022-07-30T10:06:38.203Z,48.51
2022-07-30T10:09:37.245Z,48.13
2022-07-30T10:12:10.650Z,48.17
2022-07-30T10:14:46.511Z,49.08
2022-07-30T10:17:17.325Z,48.01
2022-07-30T10:20:08.757Z,47.99
2022-07-30T10:22:55.086Z,46.04
2022-07-30T10:25:49.546Z,44.96
2022-07-30T10:28:40.598Z,44.58
2022-07-30T10:31:08.360Z,44.82
2022-07-30T10:33:55.371Z,45.22
2022-07-30T10:36:24.520Z,45.65
2022-07-30T10:38:54.175Z,44.92
2022-07-30T10:41:47.459Z,44.55
2022-07-30T10:44:50.580Z,45.03
2022-07-30T10:47:19.313Z,44.27
2022-07-30T10:50:16.095Z,43.49
2022-07-30T10:52:58.464Z,43.39
2022-07-30T10:55:38.488Z,44.51
2022-07-30T10:58:15.865Z,43.85
2022-07-30T11:00:52.658Z,43.80
2022-07-30T11:03:23.438Z,43.39
2022-07-30T11:06:15.982Z,43.76
2022-07-30T11:08:45.385Z,44.61
2022-07-30T11:11:20.813Z,44.42
2022-07-30T11:14:07.726Z,42.86
2022-07-30T11:16:34.859Z,43.26
2022-07-30T11:19:55.190Z,43.20
2022-07-30T11:22:28.160Z,42.50
2022-07-30T11:24:55.565Z,42.05
2022-07-30T11:27:48.640Z,41.33
2022-07-30T11:30:18.828Z,40.73
2022-07-30T11:32:51.531Z,41.66
2022-07-30T11:35:34.653Z,41.19
2022-07-30T11:38:19.025Z,40.61
2022-07-30T11:40:48.765Z,39.67
2022-07-30T11:43:36.205Z,39.04
2022-07-30T11:46:29.634Z,38.92
2022-07-30T11:49:05.019Z,39.46
2022-07-30T11:51:46.777Z,38.29
2022-07-30T11:54:14.202Z,38.78
2022-07-30T11:56:55.605Z,39.24
2022-07-30T11:59:22.718Z,39.52
2022-07-30T12:02:01.531Z,38.10
2022-07-30T12:04:28.715Z,37.42
2022-07-30T12:06:55.461Z,37.80
2022-07-30T12:09:29.873Z,37.13
2022-07-30T12:11:57.592Z,36.27
2022-07-30T12:14:25.246Z,35.83
2022-07-30T12:16:54.254Z,35.95
2022-07-30T12:19:21.673Z,34.50
2022-07-30T12:21:53.065Z,35.44
2022-07-30T12:24:26.770Z,34.04
2022-07-30T12:27:07.932Z,33.80
2022-07-30T12:29:35.850Z,34.24
2022-07-30T12:32:03.128Z,35.13
2022-07-30T12:34:29.925Z,36.20
2022-07-30T12:37:08.691Z,36.41
2022-07-30T12:39:35.784Z,35.89
2022-07-30T12:42:03.451Z,36.31
2022-07-30T12:44:42.150Z,36.99
2022-07-30T12:47:38.643Z,37.53
2022-07-30T12:50:16.872Z,37.77
2022-07-30T12:52:51.366Z,38.04
2022-07-30T12:55:27.894Z,37.89
2022-07-30T12:58:08.701Z,37.77
2022-07-30T13:00:54.873Z,38.67
2022-07-30T13:03:24.940Z,37.56
2022-07-30T13:05:55.602Z,38.55
2022-07-30T13:08:51.306Z,39.19
2022-07-30T13:11:21.141Z,39.94
2022-07-30T13:13:49.145Z,40.36
2022-07-30T13:16:16.727Z,40.72
2022-07-30T13:18:43.601Z,40.55
2022-07-30T13:21:11.322Z,40.77
2022-07-30T13:23:41.515Z,40.77
2022-07-30T13:26:09.934Z,41.04
2022-07-30T13:28:36.864Z,40.60
2022-07-30T13:31:04.253Z,41.08
2022-07-30T13:33:31.562Z,41.02
2022-07-30T13:35:59.136Z,39.27
2022-07-30T13:38:26.567Z,39.36
2022-07-30T13:40:56.047Z,38.30
2022-07-30T13:43:24.701Z,39.04
2022-07-30T13:45:53.086Z,37.84
2022-07-30T13:48:20.495Z,37.67
2022-07-30T13:50:47.278Z,36.73
2022-07-30T13:53:14.239Z,35.93
2022-07-30T13:55:42.492Z,35.24
2022-07-30T13:58:09.995Z,35.22
2022-07-30T14:00:37.374Z,34.52
2022-07-30T14:03:07.933Z,33.35
2022-07-30T14:05:42.023Z,33.34
2022-07-30T14:08:12.097Z,33.54
2022-07-30T14:10:40.508Z,32.19
2022-07-30T14:13:10.367Z,32.21
2022-07-30T14:15:41.177Z,32.45
2022-07-30T14:18:07.981Z,33.48
2022-07-30T14:20:35.128Z,33.33
2022-07-30T14:23:05.942Z,34.22
2022-07-30T14:25:32.861Z,35.17
2022-07-30T14:27:59.645Z,36.00
2022-07-30T14:30:26.746Z,36.73
2022-07-30T14:32:59.202Z,37.49
2022-07-30T14:35:28.593Z,36.89
2022-07-30T14:37:55.379Z,37.41
2022-07-30T14:40:22.185Z,37.82
2022-07-30T14:42:48.917Z,38.14
2022-07-30T14:45:15.822Z,38.50
2022-07-30T14:47:43.062Z,38.11
2022-07-30T14:50:09.974Z,38.54
2022-07-30T14:52:38.740Z,39.31
2022-07-30T14:55:10.065Z,38.38
2022-07-30T14:57:37.573Z,38.05
2022-07-30T15:00:11.882Z,38.14
2022-07-30T15:02:40.771Z,38.36
2022-07-30T15:05:09.128Z,37.81
2022-07-30T15:07:35.969Z,38.17
2022-07-30T15:10:04.458Z,38.11
2022-07-30T15:12:31.213Z,37.69
2022-07-30T15:14:57.979Z,37.92
2022-07-30T15:17:25.145Z,37.60
2022-07-30T15:19:52.251Z,38.13
2022-07-30T15:22:20.308Z,38.57
2022-07-30T15:24:47.285Z,38.25
2022-07-30T15:27:14.461Z,37.36
2022-07-30T15:29:41.237Z,36.03
2022-07-30T15:32:08.010Z,36.23
2022-07-30T15:34:34.983Z,36.06
2022-07-30T15:37:05.594Z,36.67
2022-07-30T15:39:33.760Z,36.51
2022-07-30T15:42:02.612Z,37.13
2022-07-30T15:44:30.208Z,36.41
2022-07-30T15:46:57.436Z,36.63
2022-07-30T15:49:24.517Z,37.42
2022-07-30T15:51:51.884Z,36.87
2022-07-30T15:54:23.206Z,36.49
2022-07-30T15:56:53.960Z,36.37
2022-07-30T15:59:22.049Z,35.78
2022-07-30T16:01:49.228Z,36.65
2022-07-30T16:04:19.522Z,35.96
2022-07-30T16:06:48.565Z,36.37
2022-07-30T16:09:16.627Z,36.66
2022-07-30T16:11:43.666Z,36.87
2022-07-30T16:14:11.068Z,37.54
2022-07-30T16:16:38.196Z,37.34
2022-07-30T16:19:05.038Z,37.50
2022-07-30T16:21:31.817Z,38.10
2022-07-30T16:23:59.105Z,38.09
2022-07-30T16:26:26.290Z,38.40
2022-07-30T16:28:53.468Z,38.31
2022-07-30T16:31:20.302Z,38.82
2022-07-30T16:33:47.350Z,39.15
2022-07-30T16:36:14.667Z,39.15
2022-07-30T16:38:41.578Z,39.23
2022-07-30T16:41:13.353Z,39.95
2022-07-30T16:43:41.024Z,39.92
2022-07-30T16:46:07.851Z,40.04
2022-07-30T16:48:34.759Z,40.11
2022-07-30T16:51:01.736Z,40.40
2022-07-30T16:53:28.666Z,40.65
2022-07-30T16:55:56.971Z,40.65
2022-07-30T16:58:30.726Z,40.94
2022-07-30T17:00:58.581Z,41.09
2022-07-30T17:03:25.770Z,41.20
2022-07-30T17:05:53.785Z,41.43
2022-07-30T17:08:24.853Z,41.51
2022-07-30T17:10:53.451Z,41.69
2022-07-30T17:13:21.324Z,41.19
2022-07-30T17:15:48.643Z,41.60
2022-07-30T17:18:16.159Z,41.89
2022-07-30T17:20:43.726Z,41.94
2022-07-30T17:23:10.747Z,41.97
2022-07-30T17:25:37.543Z,42.24
2022-07-30T17:28:04.853Z,42.39
2022-07-30T17:30:31.734Z,42.51
2022-07-30T17:32:58.832Z,42.46
2022-07-30T17:35:26.277Z,42.49
2022-07-30T17:37:53.292Z,42.62
2022-07-30T17:40:29.820Z,42.94
2022-07-30T17:43:07.834Z,42.79
2022-07-30T17:45:36.548Z,42.86
2022-07-30T17:48:05.282Z,43.01
2022-07-30T17:50:33.827Z,43.39
2022-07-30T17:53:03.920Z,43.56
2022-07-30T17:55:34.944Z,43.58
2022-07-30T17:58:04.245Z,44.16
2022-07-30T18:00:31.354Z,43.98
2022-07-30T18:02:58.119Z,44.18
2022-07-30T18:05:25.048Z,44.44
2022-07-30T18:07:51.980Z,44.29
2022-07-30T18:10:18.759Z,44.81
2022-07-30T18:12:48.826Z,44.58
2022-07-30T18:15:18.097Z,44.74
2022-07-30T18:17:45.250Z,45.04
2022-07-30T18:20:12.293Z,45.33
2022-07-30T18:22:40.408Z,45.32
2022-07-30T18:25:08.222Z,45.68
2022-07-30T18:27:47.427Z,45.46
2022-07-30T18:30:15.106Z,46.06
2022-07-30T18:32:42.020Z,46.04
2022-07-30T18:35:14.082Z,46.74
2022-07-30T18:37:43.494Z,46.97
2022-07-30T18:40:13.244Z,47.78
2022-07-30T18:42:40.270Z,47.86
2022-07-30T18:45:07.785Z,48.03
2022-07-30T18:47:34.700Z,48.14
2022-07-30T18:50:01.988Z,48.34
2022-07-30T18:52:28.802Z,48.38
2022-07-30T18:54:55.696Z,48.34
2022-07-30T18:57:22.427Z,48.85
2022-07-30T18:59:49.778Z,48.88
2022-07-30T19:02:16.575Z,48.64
2022-07-30T19:04:43.436Z,48.89
2022-07-30T19:07:10.272Z,49.24
2022-07-30T19:09:37.384Z,49.39
2022-07-30T19:12:05.634Z,49.04
2022-07-30T19:14:32.656Z,49.27
2022-07-30T19:17:00.031Z,49.14
2022-07-30T19:19:27.272Z,49.72
2022-07-30T19:21:54.364Z,49.48
2022-07-30T19:24:21.466Z,49.42
2022-07-30T19:26:49.114Z,49.91
2022-07-30T19:29:16.357Z,49.83
2022-07-30T19:31:43.126Z,50.00
2022-07-30T19:34:11.112Z,49.78
2022-07-30T19:36:38.492Z,50.22
2022-07-30T19:39:07.389Z,50.13
2022-07-30T19:41:40.527Z,49.95
2022-07-30T19:44:12.090Z,50.00
2022-07-30T19:46:41.306Z,50.39
2022-07-30T19:49:09.759Z,50.66
2022-07-30T19:52:10.280Z,50.27
2022-07-30T19:54:24.881Z,50.77
2022-07-30T19:56:52.322Z,50.80
2022-07-30T19:59:19.301Z,51.21
2022-07-30T20:02:06.403Z,51.39
2022-07-30T20:04:35.343Z,51.24
2022-07-30T20:07:02.135Z,51.39
2022-07-30T20:09:31.110Z,51.63
2022-07-30T20:12:00.013Z,52.05
2022-07-30T20:14:30.182Z,52.08
2022-07-30T20:16:58.207Z,52.67
2022-07-30T20:19:29.165Z,52.79
2022-07-30T20:22:03.154Z,52.67
2022-07-30T20:24:30.019Z,52.79
2022-07-30T20:26:58.033Z,52.97
2022-07-30T20:29:24.985Z,53.35
2022-07-30T20:31:51.862Z,52.89
2022-07-30T20:34:20.753Z,52.84
2022-07-30T20:36:52.196Z,53.19
2022-07-30T20:39:21.066Z,53.40
2022-07-30T20:41:48.040Z,53.41
2022-07-30T20:44:23.076Z,53.23
2022-07-30T20:46:52.675Z,53.40
2022-07-30T20:49:24.289Z,53.69
2022-07-30T20:52:01.315Z,53.40
2022-07-30T20:54:30.177Z,53.80
2022-07-30T20:56:57.962Z,53.71
2022-07-30T20:59:26.859Z,53.94
2022-07-30T21:01:59.854Z,53.58
2022-07-30T21:04:26.750Z,54.00
2022-07-30T21:06:53.861Z,54.24
2022-07-30T21:09:20.898Z,54.03
2022-07-30T21:11:50.465Z,54.20
2022-07-30T21:14:20.090Z,54.63
2022-07-30T21:16:47.494Z,55.09
2022-07-30T21:19:18.501Z,54.75
2022-07-30T21:21:48.743Z,55.05
2022-07-30T21:24:19.291Z,55.27
2022-07-30T21:26:49.361Z,55.29
2022-07-30T21:29:17.635Z,55.75
2022-07-30T21:32:01.307Z,55.50
2022-07-30T21:34:33.650Z,55.95
2022-07-30T21:37:02.842Z,56.01
2022-07-30T21:39:29.974Z,55.96
2022-07-30T21:41:57.742Z,56.23
2022-07-30T21:44:24.753Z,57.15
2022-07-30T21:46:52.203Z,57.24
2022-07-30T21:49:18.974Z,57.27
2022-07-30T21:51:46.023Z,57.56
2022-07-30T21:54:13.895Z,57.70
2022-07-30T21:56:43.973Z,57.83
2022-07-30T21:59:10.834Z,57.93
2022-07-30T22:01:38.742Z,57.94
2022-07-30T22:04:09.242Z,58.08
2022-07-30T22:06:39.105Z,57.85
2022-07-30T22:09:19.323Z,57.88
2022-07-30T22:11:56.891Z,57.94
2022-07-30T22:14:28.910Z,58.37
2022-07-30T22:16:56.282Z,58.43
2022-07-30T22:19:23.764Z,58.87
2022-07-30T22:21:53.215Z,59.16
2022-07-30T22:24:29.873Z,59.33
2022-07-30T22:27:01.703Z,59.34
2022-07-30T22:29:41.575Z,59.54
2022-07-30T22:32:09.728Z,60.07
2022-07-30T22:34:37.848Z,60.19
2022-07-30T22:37:04.747Z,60.49
2022-07-30T22:39:50.738Z,60.66
2022-07-30T22:42:24.391Z,60.38
2022-07-30T22:44:53.241Z,60.99
2022-07-30T22:47:54.058Z,61.37
2022-07-30T22:50:09.339Z,61.63
2022-07-30T22:52:39.212Z,62.00
2022-07-30T22:55:09.025Z,62.43
2022-07-30T22:57:37.955Z,62.13
2022-07-30T23:00:12.347Z,63.34
2022-07-30T23:02:42.428Z,63.19
2022-07-30T23:05:10.885Z,62.71
2022-07-30T23:07:40.421Z,62.51
2022-07-30T23:10:18.042Z,63.19
2022-07-30T23:12:51.234Z,63.62
2022-07-30T23:15:20.049Z,64.01
2022-07-30T23:17:47.735Z,64.04
2022-07-30T23:20:22.820Z,64.66
2022-07-30T23:22:50.091Z,64.92
2022-07-30T23:25:17.495Z,64.93
2022-07-30T23:27:46.591Z,65.48
2022-07-30T23:30:14.236Z,64.83
2022-07-30T23:32:41.446Z,65.06
2022-07-30T23:35:10.021Z,64.83
2022-07-30T23:37:49.160Z,65.14
2022-07-30T23:40:18.460Z,65.95
2022-07-30T23:42:45.523Z,65.62
2022-07-30T23:45:12.446Z,65.97
2022-07-30T23:48:00.693Z,65.91
2022-07-30T23:50:26.650Z,67.14
2022-07-30T23:52:53.397Z,67.71
2022-07-30T23:55:21.197Z,67.85
2022-07-30T23:57:50.881Z,68.70
